createdAt,value
2022-10-11T03:46:30.318Z,12.29
2022-10-11T03:49:33.178Z,12.29
2022-10-11T03:52:35.945Z,11.84
2022-10-11T03:55:40.222Z,11.88
2022-10-11T03:58:42.836Z,11.91
2022-10-11T04:01:45.479Z,11.99
2022-10-11T04:04:48.165Z,12.05
2022-10-11T04:07:50.738Z,12.10
2022-10-11T04:10:53.359Z,12.19
2022-10-11T04:13:55.656Z,12.23
2022-10-11T04:17:00.393Z,12.25
2022-10-11T04:20:03.456Z,12.34
2022-10-11T04:23:06.062Z,12.38
2022-10-11T04:26:08.830Z,12.38
2022-10-11T04:29:11.878Z,12.52
2022-10-11T04:32:14.166Z,12.51
2022-10-11T04:35:16.864Z,12.56
2022-10-11T04:38:19.274Z,12.53
2022-10-11T04:41:21.840Z,12.69
2022-10-11T04:44:24.066Z,12.80
2022-10-11T04:47:26.726Z,12.70
2022-10-11T04:50:29.061Z,12.88
2022-10-11T04:53:33.071Z,12.91
2022-10-11T04:56:35.329Z,12.76
2022-10-11T04:59:37.906Z,12.84
2022-10-11T05:02:40.243Z,12.80
2022-10-11T05:05:42.725Z,12.69
2022-10-11T05:08:45.068Z,12.68
2022-10-11T05:11:47.721Z,12.66
2022-10-11T05:14:50.024Z,12.73
2022-10-11T05:17:52.557Z,12.87
2022-10-11T05:21:15.923Z,13.09
2022-10-11T05:24:18.449Z,13.10
2022-10-11T05:27:20.816Z,13.19
2022-10-11T05:30:23.470Z,13.17
2022-10-11T05:33:26.296Z,13.29
2022-10-11T05:36:28.869Z,13.38
2022-10-11T05:39:31.196Z,13.35
2022-10-11T05:42:33.913Z,13.33
2022-10-11T05:45:38.924Z,13.42
2022-10-11T05:48:41.597Z,13.44
2022-10-11T05:51:43.953Z,13.51
2022-10-11T05:54:46.474Z,13.66
2022-10-11T05:57:52.763Z,13.63
2022-10-11T06:00:56.837Z,13.76
2022-10-11T06:03:59.553Z,13.84
2022-10-11T06:07:01.850Z,13.91
2022-10-11T06:10:05.857Z,14.00
2022-10-11T06:13:09.516Z,14.13
2022-10-11T06:16:13.376Z,14.23
2022-10-11T06:19:15.681Z,14.44
2022-10-11T06:22:19.496Z,14.52
2022-10-11T06:25:21.984Z,14.63
2022-10-11T06:28:27.130Z,14.46
2022-10-11T06:31:29.516Z,14.35
2022-10-11T06:34:32.878Z,14.36
2022-10-11T06:37:35.062Z,14.53
2022-10-11T06:40:38.215Z,14.48
2022-10-11T06:43:40.526Z,14.51
2022-10-11T06:46:43.329Z,14.48
2022-10-11T06:49:45.648Z,14.61
2022-10-11T06:52:48.240Z,14.65
2022-10-11T06:55:50.566Z,14.66
2022-10-11T06:58:54.049Z,14.66
2022-10-11T07:01:56.435Z,14.66
2022-10-11T07:04:59.005Z,14.77
2022-10-11T07:08:02.184Z,14.84
2022-10-11T07:11:15.953Z,14.84
2022-10-11T07:14:18.217Z,15.17
2022-10-11T07:17:20.775Z,15.27
2022-10-11T07:20:23.052Z,15.39
2022-10-11T07:23:25.841Z,15.48
2022-10-11T07:26:32.522Z,15.57
2022-10-11T07:29:39.341Z,15.63
2022-10-11T07:32:41.628Z,15.84
2022-10-11T07:35:48.210Z,15.84
2022-10-11T07:38:51.546Z,15.85
2022-10-11T07:41:54.222Z,15.77
2022-10-11T07:44:56.464Z,15.90
2022-10-11T07:47:59.161Z,15.85
2022-10-11T07:51:13.541Z,15.91
2022-10-11T07:54:16.114Z,16.02
2022-10-11T07:57:18.364Z,16.23
2022-10-11T08:00:21.266Z,16.42
2022-10-11T08:03:24.342Z,16.57
2022-10-11T08:06:30.287Z,16.68
2022-10-11T08:09:33.306Z,16.66
2022-10-11T08:12:35.609Z,16.52
2022-10-11T08:15:38.257Z,16.59
2022-10-11T08:18:40.683Z,16.65
2022-10-11T08:21:43.385Z,16.62
2022-10-11T08:24:45.666Z,16.71
2022-10-11T08:27:48.677Z,16.73
2022-10-11T08:30:53.100Z,16.79
2022-10-11T08:33:55.796Z,16.88
2022-10-11T08:36:59.608Z,16.83
2022-10-11T08:40:03.397Z,16.77
2022-10-11T08:43:14.065Z,17.10
2022-10-11T08:46:23.062Z,18.09
2022-10-11T08:49:31.434Z,22.21
2022-10-11T08:52:45.003Z,23.43
2022-10-11T08:55:51.155Z,23.48
2022-10-11T08:59:25.729Z,22.46
2022-10-11T09:03:10.342Z,20.39
2022-10-11T09:06:43.851Z,19.39
2022-10-11T09:10:07.686Z,18.76
2022-10-11T09:13:43.433Z,18.53
2022-10-11T09:17:21.719Z,18.57
2022-10-11T09:20:39.422Z,18.34
2022-10-11T09:23:52.413Z,18.63
2022-10-11T09:27:05.592Z,18.27
2022-10-11T09:30:19.542Z,18.07
2022-10-11T09:33:25.493Z,18.35
2022-10-11T09:36:49.508Z,18.56
2022-10-11T09:40:44.812Z,18.70
2022-10-11T09:43:49.362Z,18.82
2022-10-11T09:46:53.753Z,18.63
2022-10-11T09:50:04.091Z,18.71
2022-10-11T09:53:07.689Z,18.77
2022-10-11T09:56:10.160Z,18.74
2022-10-11T09:59:32.015Z,18.97
2022-10-11T10:02:56.020Z,19.11
2022-10-11T10:06:09.818Z,19.36
2022-10-11T10:09:25.183Z,19.24
2022-10-11T10:12:29.828Z,19.24
2022-10-11T10:15:35.180Z,19.41
2022-10-11T10:18:43.856Z,19.58
2022-10-11T10:21:49.085Z,19.74
2022-10-11T10:24:52.244Z,19.85
2022-10-11T10:28:04.117Z,19.96
2022-10-11T10:31:21.961Z,19.94
2022-10-11T10:34:29.385Z,19.77
2022-10-11T10:37:56.572Z,19.50
2022-10-11T10:41:02.842Z,19.57
2022-10-11T10:44:05.810Z,19.57
2022-10-11T10:47:31.243Z,19.49
2022-10-11T10:50:58.680Z,19.57
2022-10-11T10:54:39.046Z,19.73
2022-10-11T10:58:18.951Z,19.90
2022-10-11T11:01:27.968Z,20.09
2022-10-11T11:04:33.456Z,20.31
2022-10-11T11:08:02.432Z,20.24
2022-10-11T11:11:23.896Z,20.14
2022-10-11T11:14:54.233Z,20.16
2022-10-11T11:17:59.766Z,20.19
2022-10-11T11:21:44.536Z,20.07
2022-10-11T11:25:11.576Z,20.19
2022-10-11T11:28:37.908Z,20.28
2022-10-11T11:31:50.597Z,20.32
2022-10-11T11:35:01.048Z,20.30
2022-10-11T11:38:29.958Z,20.08
2022-10-11T11:41:59.702Z,20.39
2022-10-11T11:45:12.249Z,20.63
2022-10-11T11:48:25.914Z,20.93
2022-10-11T11:51:41.495Z,21.04
2022-10-11T11:55:11.202Z,20.94
2022-10-11T11:58:34.514Z,20.85
2022-10-11T12:01:52.646Z,20.77
2022-10-11T12:04:56.654Z,20.72
2022-10-11T12:08:31.727Z,20.42
2022-10-11T12:11:37.406Z,20.36
2022-10-11T12:14:41.045Z,20.14
2022-10-11T12:17:55.970Z,20.03
2022-10-11T12:21:03.547Z,20.07
2022-10-11T12:24:07.204Z,20.05
2022-10-11T12:27:28.080Z,20.27
2022-10-11T12:30:44.152Z,20.42
2022-10-11T12:33:47.369Z,20.66
2022-10-11T12:36:51.282Z,20.77
2022-10-11T12:39:58.710Z,20.75
2022-10-11T12:43:26.296Z,21.01
2022-10-11T12:46:28.446Z,21.12
2022-10-11T12:49:35.407Z,21.18
2022-10-11T12:52:54.977Z,21.22
2022-10-11T12:56:32.449Z,21.32
2022-10-11T12:59:43.139Z,21.30
2022-10-11T13:02:46.991Z,21.43
2022-10-11T13:05:53.638Z,21.40
2022-10-11T13:09:11.691Z,21.36
2022-10-11T13:12:21.453Z,21.00
2022-10-11T13:15:24.418Z,20.77
2022-10-11T13:18:27.104Z,20.49
2022-10-11T13:21:36.467Z,20.37
2022-10-11T13:24:39.938Z,20.20
2022-10-11T13:27:43.225Z,19.95
2022-10-11T13:30:47.743Z,19.76
2022-10-11T13:33:54.845Z,19.59
2022-10-11T13:36:58.647Z,19.49
2022-10-11T13:40:01.637Z,19.43
2022-10-11T13:43:05.651Z,19.34
2022-10-11T13:46:19.581Z,19.23
2022-10-11T13:49:29.409Z,19.19
2022-10-11T13:52:32.427Z,19.30
2022-10-11T13:55:47.378Z,19.49
2022-10-11T13:58:52.599Z,19.86
2022-10-11T14:02:00.259Z,20.20
2022-10-11T14:05:02.854Z,20.36
2022-10-11T14:08:31.157Z,20.49
2022-10-11T14:11:37.387Z,20.64
2022-10-11T14:14:42.050Z,20.82
2022-10-11T14:17:45.794Z,20.92
2022-10-11T14:20:48.174Z,20.97
2022-10-11T14:23:53.094Z,20.93
2022-10-11T14:26:56.359Z,20.91
2022-10-11T14:30:25.081Z,20.82
2022-10-11T14:33:21.405Z,20.56
2022-10-11T14:36:24.162Z,20.46
2022-10-11T14:39:29.539Z,20.26
2022-10-11T14:42:33.110Z,20.18
2022-10-11T14:45:35.805Z,20.23
2022-10-11T14:48:54.172Z,20.26
2022-10-11T14:51:58.995Z,20.16
2022-10-11T14:55:02.175Z,20.14
2022-10-11T14:58:06.002Z,20.02
2022-10-11T15:01:14.090Z,19.95
2022-10-11T15:04:16.541Z,19.87
2022-10-11T15:07:19.140Z,19.60
2022-10-11T15:10:24.766Z,19.54
2022-10-11T15:13:27.382Z,19.36
2022-10-11T15:16:29.959Z,19.34
2022-10-11T15:19:32.663Z,19.39
2022-10-11T15:22:35.069Z,19.43
2022-10-11T15:25:40.493Z,19.48
2022-10-11T15:28:42.951Z,19.35
2022-10-11T15:31:46.482Z,19.31
2022-10-11T15:34:48.634Z,19.03
2022-10-11T15:37:58.063Z,18.97
2022-10-11T15:41:00.469Z,18.93
